Time;durP1;ratioP1;P1;durP2;ratioP2;P2;SDS_P1;SDS_P2;PMS_P1;PMS_P2;Temp;Humidity;BMP_temperature;BMP_pressure;BME280_temperature;BME280_humidity;BME280_pressure;Samples;Min_cycle;Max_cycle;Signal;HPM_P1;HPM_P2
2022/05/28 00:01:21;;;;;;;0.20;0.20;;;8.70;99.90;;;;;;5008594;28;20624;-81
2022/05/28 00:03:47;;;;;;;0.20;0.20;;;8.70;99.90;;;;;;5008946;28;20184;-84
2022/05/28 00:06:16;;;;;;;0.20;0.20;;;8.70;99.90;;;;;;5006938;28;20854;-82
2022/05/28 00:08:42;;;;;;;0.30;0.30;;;8.80;99.90;;;;;;5006157;28;20463;-85
2022/05/28 00:11:36;;;;;;;0.20;0.20;;;8.70;99.90;;;;;;4990706;28;20451;-85
2022/05/28 00:14:02;;;;;;;0.20;0.20;;;8.80;99.90;;;;;;5005808;28;20443;-83
2022/05/28 00:16:27;;;;;;;0.20;0.20;;;8.80;99.90;;;;;;4990607;28;20871;-81
2022/05/28 00:18:53;;;;;;;0.17;0.17;;;8.70;99.90;;;;;;5005251;28;20193;-82
2022/05/28 00:21:20;;;;;;;0.20;0.20;;;8.70;99.90;;;;;;5009388;28;20200;-84
2022/05/28 00:23:46;;;;;;;0.20;0.20;;;8.60;99.90;;;;;;5004787;28;20203;-83
2022/05/28 00:26:13;;;;;;;0.30;0.30;;;8.50;99.90;;;;;;5003170;28;20539;-83
2022/05/28 00:28:38;;;;;;;0.20;0.20;;;8.60;99.90;;;;;;5004068;28;20438;-83
2022/05/28 00:31:04;;;;;;;0.30;0.30;;;8.60;99.90;;;;;;4990279;28;20494;-84
2022/05/28 00:33:30;;;;;;;0.20;0.20;;;8.50;99.90;;;;;;5008873;28;20192;-81
2022/05/28 00:35:57;;;;;;;0.30;0.30;;;8.50;99.90;;;;;;5005036;28;21222;-83
2022/05/28 00:38:24;;;;;;;0.30;0.30;;;8.40;99.90;;;;;;5009429;28;20781;-82
2022/05/28 00:40:52;;;;;;;0.30;0.30;;;8.50;99.90;;;;;;5008360;28;20451;-82
2022/05/28 00:43:18;;;;;;;0.20;0.20;;;8.50;99.90;;;;;;4990690;28;20489;-82
2022/05/28 00:45:46;;;;;;;0.20;0.20;;;8.40;99.90;;;;;;5006572;28;20450;-82
2022/05/28 00:48:17;;;;;;;0.20;0.20;;;8.40;99.90;;;;;;5007375;28;20439;-83
2022/05/28 00:50:43;;;;;;;0.20;0.20;;;8.50;99.90;;;;;;5006839;28;20505;-82
2022/05/28 00:53:08;;;;;;;0.20;0.20;;;8.40;99.90;;;;;;4995905;28;20479;-83
2022/05/28 00:55:35;;;;;;;0.20;0.20;;;8.40;99.90;;;;;;4997249;28;20482;-82
2022/05/28 00:58:06;;;;;;;0.30;0.30;;;8.30;99.90;;;;;;5006682;28;20188;-83
2022/05/28 01:00:33;;;;;;;0.30;0.30;;;8.20;99.90;;;;;;5004781;28;20949;-82
2022/05/28 01:03:22;;;;;;;0.30;0.30;;;8.20;99.90;;;;;;5005430;28;20518;-84
2022/05/28 01:06:10;;;;;;;0.30;0.30;;;8.10;99.90;;;;;;4973723;28;20471;-83
2022/05/28 01:08:38;;;;;;;0.30;0.30;;;8.10;99.90;;;;;;5007275;28;20443;-82
2022/05/28 01:11:20;;;;;;;0.20;0.20;;;8.00;99.90;;;;;;4990535;28;20484;-83
2022/05/28 01:13:56;;;;;;;0.30;0.30;;;8.10;99.90;;;;;;5001153;28;20951;-82
2022/05/28 01:16:33;;;;;;;0.30;0.30;;;8.20;99.90;;;;;;5000458;28;20458;-82
2022/05/28 01:19:27;;;;;;;0.30;0.30;;;8.10;99.90;;;;;;5007835;28;20530;-83
2022/05/28 01:22:27;;;;;;;0.20;0.20;;;8.10;99.90;;;;;;4990031;28;21032;-81
2022/05/28 01:25:08;;;;;;;0.30;0.30;;;8.00;99.90;;;;;;4995921;28;20934;-84
2022/05/28 01:27:42;;;;;;;0.20;0.20;;;8.00;99.90;;;;;;5010993;28;20989;-82
2022/05/28 01:30:10;;;;;;;0.30;0.30;;;8.00;99.90;;;;;;5001724;28;20486;-82
2022/05/28 01:32:37;;;;;;;0.20;0.20;;;7.90;99.90;;;;;;5010975;28;21001;-82
2022/05/28 01:35:07;;;;;;;0.20;0.20;;;7.90;99.90;;;;;;4982365;28;20543;-85
2022/05/28 01:37:35;;;;;;;0.30;0.30;;;7.80;99.90;;;;;;5011992;28;20432;-82
2022/05/28 01:40:04;;;;;;;0.30;0.30;;;7.90;99.90;;;;;;5012000;28;20549;-81
2022/05/28 01:42:31;;;;;;;0.20;0.20;;;7.90;99.90;;;;;;4993936;28;20427;-82
2022/05/28 01:44:57;;;;;;;0.20;0.20;;;7.90;99.90;;;;;;4997617;28;20451;-81
2022/05/28 01:47:24;;;;;;;0.30;0.30;;;7.90;99.90;;;;;;5008088;28;20502;-81
2022/05/28 01:49:51;;;;;;;0.20;0.20;;;7.80;99.90;;;;;;5008786;28;20482;-83
2022/05/28 01:52:18;;;;;;;0.37;0.37;;;7.90;99.90;;;;;;5007172;28;20439;-83
2022/05/28 01:54:46;;;;;;;0.20;0.20;;;7.90;99.90;;;;;;5009892;28;20512;-84
2022/05/28 01:57:13;;;;;;;0.40;0.40;;;7.90;99.90;;;;;;4994174;28;20496;-83
2022/05/28 01:59:39;;;;;;;0.20;0.20;;;7.90;99.90;;;;;;5007977;28;20877;-84
2022/05/28 02:02:08;;;;;;;0.30;0.30;;;7.90;99.90;;;;;;5007300;28;20493;-83
2022/05/28 02:04:36;;;;;;;0.33;0.33;;;7.90;99.90;;;;;;5010330;28;20445;-82
2022/05/28 02:07:04;;;;;;;0.30;0.30;;;7.90;99.90;;;;;;4990491;28;20447;-83
2022/05/28 02:09:35;;;;;;;0.30;0.30;;;7.90;99.90;;;;;;5004435;28;20925;-82
2022/05/28 02:12:22;;;;;;;0.20;0.20;;;7.90;99.90;;;;;;5008312;28;20482;-82
2022/05/28 02:14:50;;;;;;;0.27;0.27;;;7.90;99.90;;;;;;5011122;28;20458;-85
2022/05/28 02:17:32;;;;;;;0.30;0.30;;;7.90;99.90;;;;;;5008877;28;20443;-82
2022/05/28 02:20:12;;;;;;;0.20;0.20;;;8.00;99.90;;;;;;5015618;28;20475;-81
2022/05/28 02:22:50;;;;;;;0.30;0.30;;;7.90;99.90;;;;;;5010379;28;20463;-84
2022/05/28 02:25:23;;;;;;;0.30;0.30;;;8.00;99.90;;;;;;5000908;28;20439;-82
2022/05/28 02:27:50;;;;;;;0.20;0.20;;;8.00;99.90;;;;;;4990810;28;20482;-82
2022/05/28 02:30:17;;;;;;;0.30;0.30;;;8.10;99.90;;;;;;5009937;28;20483;-86
2022/05/28 02:32:42;;;;;;;0.30;0.30;;;7.90;99.90;;;;;;5010083;28;20459;-82
2022/05/28 02:35:10;;;;;;;0.30;0.30;;;8.00;99.90;;;;;;4997527;28;20454;-82
2022/05/28 02:37:35;;;;;;;0.30;0.30;;;8.00;99.90;;;;;;5008197;28;20188;-82
2022/05/28 02:40:01;;;;;;;0.30;0.30;;;8.00;99.90;;;;;;5009098;28;20958;-82
2022/05/28 02:42:27;;;;;;;0.30;0.30;;;8.00;99.90;;;;;;4989160;28;20189;-85
2022/05/28 02:44:53;;;;;;;0.30;0.30;;;8.00;99.90;;;;;;5011091;28;20196;-83
2022/05/28 02:47:18;;;;;;;0.20;0.20;;;8.10;99.90;;;;;;5008639;28;20680;-84
2022/05/28 02:49:43;;;;;;;0.20;0.20;;;8.00;99.90;;;;;;5008772;28;20218;-89
2022/05/28 02:52:09;;;;;;;0.20;0.20;;;8.00;99.90;;;;;;4992473;28;20268;-85
2022/05/28 02:54:35;;;;;;;0.30;0.30;;;8.00;99.90;;;;;;5004840;28;20197;-84
2022/05/28 02:57:02;;;;;;;0.23;0.23;;;8.00;99.90;;;;;;4988770;28;20644;-83
2022/05/28 02:59:27;;;;;;;0.30;0.30;;;8.00;99.90;;;;;;5008539;28;20447;-87
2022/05/28 03:01:53;;;;;;;0.20;0.20;;;8.00;99.90;;;;;;4983698;28;20541;-85
2022/05/28 03:04:20;;;;;;;0.30;0.30;;;8.10;99.90;;;;;;5009378;28;20275;-85
2022/05/28 03:06:45;;;;;;;0.27;0.27;;;8.10;99.90;;;;;;5010052;28;20493;-91
2022/05/28 03:09:11;;;;;;;0.23;0.23;;;8.10;99.90;;;;;;5008770;28;20879;-84
2022/05/28 03:11:38;;;;;;;0.30;0.30;;;8.00;99.90;;;;;;5005964;28;20203;-82
2022/05/28 03:14:04;;;;;;;0.20;0.20;;;8.00;99.90;;;;;;4999525;28;20675;-83
2022/05/28 03:16:31;;;;;;;0.30;0.30;;;8.00;99.90;;;;;;5010273;28;20465;-82
2022/05/28 03:18:56;;;;;;;0.20;0.20;;;8.10;99.90;;;;;;5009271;28;20443;-83
2022/05/28 03:21:22;;;;;;;0.30;0.30;;;8.10;99.90;;;;;;4993017;28;20439;-82
2022/05/28 03:23:47;;;;;;;0.30;0.30;;;8.20;99.90;;;;;;5004839;28;20866;-84
2022/05/28 03:26:19;;;;;;;0.30;0.30;;;8.30;99.90;;;;;;4999193;28;20224;-83
2022/05/28 03:28:45;;;;;;;0.20;0.20;;;8.30;99.90;;;;;;5007329;28;20192;-90
2022/05/28 03:31:11;;;;;;;0.20;0.20;;;8.40;99.90;;;;;;4990606;28;20490;-83
2022/05/28 03:33:37;;;;;;;0.30;0.30;;;8.40;99.90;;;;;;5003726;28;21363;-82
2022/05/28 03:36:04;;;;;;;0.20;0.20;;;8.30;99.90;;;;;;5011820;28;20457;-82
2022/05/28 03:38:30;;;;;;;0.30;0.30;;;8.30;99.90;;;;;;5024987;28;20188;-83
2022/05/28 03:40:56;;;;;;;0.30;0.30;;;8.20;99.90;;;;;;5009295;28;20466;-82
2022/05/28 03:43:21;;;;;;;0.20;0.20;;;8.30;99.90;;;;;;5009551;28;20211;-82
2022/05/28 03:45:47;;;;;;;0.20;0.20;;;8.30;99.90;;;;;;5001399;28;20305;-82
2022/05/28 03:48:12;;;;;;;0.30;0.30;;;8.40;99.90;;;;;;5007642;28;20197;-85
2022/05/28 03:50:38;;;;;;;0.20;0.20;;;8.30;99.90;;;;;;5008078;28;20224;-83
2022/05/28 03:53:04;;;;;;;0.30;0.30;;;8.30;99.90;;;;;;4996037;28;20189;-84
2022/05/28 03:55:30;;;;;;;0.30;0.30;;;8.30;99.90;;;;;;5002066;28;20193;-86
2022/05/28 03:57:55;;;;;;;0.20;0.20;;;8.40;99.90;;;;;;5009312;28;20819;-83
2022/05/28 04:00:21;;;;;;;0.20;0.20;;;8.40;99.90;;;;;;5009164;28;20466;-82
2022/05/28 04:02:47;;;;;;;0.30;0.30;;;8.50;99.90;;;;;;5007433;28;20239;-83
2022/05/28 04:05:13;;;;;;;0.30;0.30;;;8.50;99.90;;;;;;5005594;28;20268;-83
2022/05/28 04:07:39;;;;;;;0.30;0.30;;;8.50;99.90;;;;;;5009462;28;20454;-83
2022/05/28 04:10:06;;;;;;;0.27;0.27;;;8.40;99.90;;;;;;4991645;28;21063;-85
2022/05/28 04:12:32;;;;;;;0.30;0.30;;;8.40;99.90;;;;;;5005064;28;20968;-84
2022/05/28 04:14:58;;;;;;;0.20;0.20;;;8.40;99.90;;;;;;5000665;28;20443;-85
2022/05/28 04:17:24;;;;;;;0.20;0.20;;;8.30;99.90;;;;;;5003131;28;20306;-86
2022/05/28 04:19:49;;;;;;;0.30;0.30;;;8.40;99.90;;;;;;4999477;28;20450;-83
2022/05/28 04:22:15;;;;;;;0.20;0.20;;;8.30;99.90;;;;;;5008877;28;20188;-83
2022/05/28 04:24:41;;;;;;;0.30;0.30;;;8.40;99.90;;;;;;5005681;28;20192;-82
2022/05/28 04:27:06;;;;;;;0.20;0.20;;;8.30;99.90;;;;;;4990852;28;20415;-87
2022/05/28 04:29:32;;;;;;;0.20;0.20;;;8.30;99.90;;;;;;5004794;28;20565;-87
2022/05/28 04:31:57;;;;;;;0.20;0.20;;;8.30;99.90;;;;;;4986404;28;20602;-82
2022/05/28 04:34:23;;;;;;;0.20;0.20;;;8.40;99.90;;;;;;5003213;28;20200;-83
2022/05/28 04:36:48;;;;;;;0.30;0.30;;;8.60;99.90;;;;;;4990353;28;20648;-84
2022/05/28 04:39:14;;;;;;;0.30;0.30;;;8.70;99.90;;;;;;5006324;28;20203;-84
2022/05/28 04:41:40;;;;;;;0.20;0.20;;;8.70;99.90;;;;;;4989390;28;20184;-90
2022/05/28 04:44:06;;;;;;;0.30;0.30;;;8.80;99.90;;;;;;5000207;28;20227;-84
2022/05/28 04:46:31;;;;;;;0.20;0.20;;;8.90;99.90;;;;;;4991911;28;20645;-87
2022/05/28 04:48:57;;;;;;;0.27;0.27;;;9.10;99.90;;;;;;4998582;28;20779;-86
2022/05/28 04:51:23;;;;;;;0.20;0.20;;;9.10;99.90;;;;;;4993132;28;20242;-84
2022/05/28 04:53:49;;;;;;;0.20;0.20;;;9.10;99.90;;;;;;4991508;28;20435;-89
2022/05/28 04:56:14;;;;;;;0.20;0.20;;;9.10;99.90;;;;;;5007026;28;20672;-85
2022/05/28 04:58:41;;;;;;;0.20;0.20;;;9.10;99.90;;;;;;5008501;28;20227;-89
2022/05/28 05:01:07;;;;;;;0.30;0.30;;;9.10;99.90;;;;;;4989911;28;20198;-84
2022/05/28 05:03:33;;;;;;;0.20;0.20;;;9.20;99.90;;;;;;4989625;28;20450;-90
2022/05/28 05:05:59;;;;;;;0.20;0.20;;;9.30;99.90;;;;;;5001517;28;20895;-86
2022/05/28 05:08:24;;;;;;;0.20;0.20;;;9.30;99.90;;;;;;5001090;28;20467;-84
2022/05/28 05:10:50;;;;;;;0.20;0.20;;;9.30;99.90;;;;;;5010828;28;20698;-87
2022/05/28 05:13:15;;;;;;;0.20;0.20;;;9.30;99.90;;;;;;4994580;28;20272;-90
2022/05/28 05:15:41;;;;;;;0.20;0.20;;;9.50;99.90;;;;;;4992135;28;20636;-83
2022/05/28 05:18:07;;;;;;;0.20;0.20;;;9.60;99.90;;;;;;4994049;28;20191;-86
2022/05/28 05:20:33;;;;;;;0.20;0.20;;;9.70;99.90;;;;;;5008908;28;20599;-88
2022/05/28 05:22:59;;;;;;;0.20;0.20;;;9.80;99.90;;;;;;5009255;28;20509;-86
2022/05/28 05:25:26;;;;;;;0.20;0.20;;;9.80;99.90;;;;;;4992292;28;20455;-87
2022/05/28 05:27:52;;;;;;;0.20;0.20;;;9.80;99.90;;;;;;5011674;28;20553;-85
2022/05/28 05:30:17;;;;;;;0.20;0.20;;;9.80;99.90;;;;;;5020203;28;20568;-86
2022/05/28 05:32:43;;;;;;;0.20;0.20;;;9.70;99.90;;;;;;5014917;28;20552;-87
2022/05/28 05:35:09;;;;;;;0.20;0.20;;;9.60;99.90;;;;;;5004603;28;20211;-88
2022/05/28 05:37:35;;;;;;;0.20;0.20;;;9.70;99.90;;;;;;5003798;28;20204;-86
2022/05/28 05:40:00;;;;;;;0.20;0.20;;;9.80;99.90;;;;;;5007731;28;20452;-83
2022/05/28 05:42:26;;;;;;;0.20;0.20;;;9.80;99.90;;;;;;5004624;28;20192;-83
2022/05/28 05:44:53;;;;;;;0.20;0.20;;;9.90;99.90;;;;;;5010609;28;20570;-82
2022/05/28 05:47:19;;;;;;;0.20;0.20;;;9.90;99.90;;;;;;4992067;28;20193;-84
2022/05/28 05:49:44;;;;;;;0.30;0.30;;;10.00;99.90;;;;;;4995146;28;20508;-84
2022/05/28 05:52:10;;;;;;;0.20;0.20;;;10.20;99.90;;;;;;5011459;28;20550;-84
2022/05/28 05:54:35;;;;;;;0.20;0.20;;;10.30;99.90;;;;;;5009878;28;20286;-85
2022/05/28 05:57:01;;;;;;;0.30;0.30;;;10.50;99.90;;;;;;5010084;28;20220;-89
2022/05/28 05:59:27;;;;;;;0.20;0.20;;;10.60;99.90;;;;;;4991227;28;20199;-87
2022/05/28 06:01:52;;;;;;;0.20;0.20;;;10.70;99.90;;;;;;5011315;28;20803;-84
2022/05/28 06:04:21;;;;;;;0.20;0.20;;;10.70;99.90;;;;;;4993317;28;20958;-85
2022/05/28 06:06:46;;;;;;;0.20;0.20;;;10.80;99.90;;;;;;5005412;28;20180;-89
2022/05/28 06:09:12;;;;;;;0.20;0.20;;;10.90;99.90;;;;;;5007993;28;20991;-84
2022/05/28 06:11:37;;;;;;;0.20;0.20;;;11.00;99.90;;;;;;5005984;28;20613;-89
2022/05/28 06:14:03;;;;;;;0.10;0.10;;;11.00;99.90;;;;;;4998825;28;20308;-86
2022/05/28 06:16:29;;;;;;;0.20;0.20;;;11.20;99.90;;;;;;5009208;28;20197;-88
2022/05/28 06:18:54;;;;;;;0.20;0.20;;;11.30;99.90;;;;;;4992766;28;20196;-87
2022/05/28 06:21:20;;;;;;;0.20;0.20;;;11.30;99.90;;;;;;5005632;28;20203;-85
2022/05/28 06:23:45;;;;;;;0.20;0.20;;;11.40;99.90;;;;;;5005579;28;20266;-87
2022/05/28 06:26:12;;;;;;;0.30;0.30;;;11.50;99.90;;;;;;5008593;28;20243;-80
2022/05/28 06:28:38;;;;;;;0.20;0.20;;;11.50;99.90;;;;;;4987824;28;20192;-84
2022/05/28 06:31:07;;;;;;;0.30;0.30;;;11.60;99.90;;;;;;5003835;28;20500;-78
2022/05/28 06:33:34;;;;;;;0.40;0.40;;;11.70;99.90;;;;;;5005951;28;20199;-79
2022/05/28 06:36:02;;;;;;;0.20;0.20;;;11.80;99.90;;;;;;5009830;28;20455;-80
2022/05/28 06:38:28;;;;;;;0.20;0.20;;;11.90;99.90;;;;;;5004431;28;20878;-78
2022/05/28 06:40:53;;;;;;;0.20;0.20;;;12.20;99.90;;;;;;5003408;28;20927;-78
2022/05/28 06:43:20;;;;;;;0.30;0.30;;;12.30;99.90;;;;;;5007335;28;20185;-81
2022/05/28 06:45:46;;;;;;;0.20;0.20;;;12.30;99.90;;;;;;5007760;28;20196;-78
2022/05/28 06:48:12;;;;;;;0.10;0.10;;;12.50;99.90;;;;;;5009281;28;20442;-78
2022/05/28 06:53:23;;;;;;;0.10;0.10;;;12.40;99.90;;;;;;5001663;28;20961;-78
2022/05/28 06:55:48;;;;;;;0.20;0.20;;;12.10;99.90;;;;;;4990495;28;20507;-78
2022/05/28 06:58:15;;;;;;;0.20;0.20;;;11.80;99.90;;;;;;5008206;28;20819;-76
2022/05/28 07:00:41;;;;;;;0.20;0.20;;;11.50;99.90;;;;;;5004223;28;20541;-77
2022/05/28 07:03:11;;;;;;;0.20;0.20;;;11.50;99.90;;;;;;5003482;28;20468;-82
2022/05/28 07:05:37;;;;;;;0.20;0.20;;;11.40;99.90;;;;;;5002660;28;20195;-81
2022/05/28 07:08:02;;;;;;;0.20;0.20;;;11.40;99.90;;;;;;5003964;28;20439;-88
2022/05/28 07:10:28;;;;;;;0.20;0.20;;;11.20;99.90;;;;;;5010211;28;20219;-82
2022/05/28 07:12:54;;;;;;;0.20;0.20;;;11.30;99.90;;;;;;5007655;28;20241;-84
2022/05/28 07:15:20;;;;;;;0.10;0.10;;;11.20;99.90;;;;;;4992473;28;20233;-79
2022/05/28 07:17:45;;;;;;;0.10;0.10;;;11.30;99.90;;;;;;5015704;28;20188;-86
2022/05/28 07:20:11;;;;;;;0.20;0.20;;;11.50;99.90;;;;;;5004122;28;20291;-84
2022/05/28 07:22:37;;;;;;;0.20;0.20;;;11.50;99.90;;;;;;5002452;28;20188;-83
2022/05/28 07:25:03;;;;;;;0.20;0.20;;;11.50;99.90;;;;;;5002610;28;20458;-83
2022/05/28 07:27:29;;;;;;;0.20;0.20;;;11.70;99.90;;;;;;5000746;28;20389;-90
2022/05/28 07:29:55;;;;;;;0.20;0.20;;;12.00;99.90;;;;;;5010835;28;20637;-85
2022/05/28 07:32:22;;;;;;;0.20;0.20;;;12.10;99.90;;;;;;5010500;28;20939;-85
2022/05/28 07:34:48;;;;;;;0.17;0.17;;;12.50;99.90;;;;;;5003965;28;20816;-84
2022/05/28 07:37:13;;;;;;;0.10;0.10;;;13.00;99.90;;;;;;5003934;28;20444;-83
2022/05/28 07:39:39;;;;;;;0.20;0.20;;;12.60;99.90;;;;;;4982388;28;20224;-82
2022/05/28 07:42:05;;;;;;;0.13;0.13;;;12.50;99.90;;;;;;4997954;28;20247;-84
2022/05/28 07:44:30;;;;;;;0.20;0.20;;;12.40;99.90;;;;;;5008100;28;20196;-82
2022/05/28 07:46:57;;;;;;;0.20;0.20;;;12.50;99.90;;;;;;5004007;28;20470;-84
2022/05/28 07:49:22;;;;;;;0.10;0.10;;;12.90;99.90;;;;;;4985462;28;20230;-88
2022/05/28 07:51:48;;;;;;;0.20;0.20;;;12.80;99.90;;;;;;5000843;28;20530;-85
2022/05/28 07:54:16;;;;;;;0.10;0.10;;;12.20;99.90;;;;;;4999519;28;20195;-83
2022/05/28 07:56:42;;;;;;;0.10;0.10;;;12.00;99.90;;;;;;5009091;28;20601;-84
2022/05/28 07:59:07;;;;;;;0.20;0.20;;;11.80;99.90;;;;;;5010089;28;20473;-81
2022/05/28 08:01:35;;;;;;;0.20;0.20;;;11.90;99.90;;;;;;5006582;28;20351;-82
2022/05/28 08:04:00;;;;;;;0.10;0.10;;;12.30;99.90;;;;;;4992002;28;20187;-83
2022/05/28 08:06:27;;;;;;;0.17;0.17;;;12.40;99.90;;;;;;4990524;28;21024;-81
2022/05/28 08:08:53;;;;;;;0.10;0.10;;;12.70;99.90;;;;;;5001332;28;20194;-85
2022/05/28 08:11:21;;;;;;;0.10;0.10;;;12.60;99.90;;;;;;5006407;28;20490;-82
2022/05/28 08:13:47;;;;;;;0.10;0.10;;;12.90;99.90;;;;;;5010485;28;20431;-84
2022/05/28 08:16:13;;;;;;;0.10;0.10;;;12.90;99.90;;;;;;4997300;28;20463;-82
2022/05/28 08:18:39;;;;;;;0.10;0.10;;;12.60;99.90;;;;;;5006604;28;20185;-80
2022/05/28 08:23:50;;;;;;;0.20;0.20;;;11.90;99.90;;;;;;5008436;28;21076;-85
2022/05/28 08:26:19;;;;;;;0.10;0.10;;;11.70;99.90;;;;;;5004468;28;20487;-83
2022/05/28 08:28:46;;;;;;;0.10;0.10;;;11.80;99.90;;;;;;5009270;28;20746;-80
2022/05/28 08:31:12;;;;;;;0.20;0.20;;;11.90;99.90;;;;;;5005216;28;20494;-81
2022/05/28 08:33:37;;;;;;;0.10;0.10;;;11.80;99.90;;;;;;4989347;28;20458;-83
2022/05/28 08:36:04;;;;;;;0.20;0.20;;;12.00;99.90;;;;;;4998979;28;20187;-81
2022/05/28 08:38:30;;;;;;;0.10;0.10;;;12.30;99.90;;;;;;5003154;28;20539;-86
2022/05/28 08:41:01;;;;;;;0.10;0.10;;;12.50;99.90;;;;;;5014078;28;20489;-82
2022/05/28 08:43:30;;;;;;;0.10;0.10;;;12.70;99.90;;;;;;5005584;28;20443;-81
2022/05/28 08:45:56;;;;;;;0.10;0.10;;;13.00;99.90;;;;;;4994485;28;20504;-84
2022/05/28 08:48:28;;;;;;;0.10;0.10;;;12.60;99.90;;;;;;5005973;28;20496;-92
2022/05/28 08:51:05;;;;;;;0.10;0.10;;;12.30;99.90;;;;;;5009125;28;20487;-84
2022/05/28 08:53:36;;;;;;;0.10;0.10;;;12.40;99.90;;;;;;5009687;28;20453;-86
2022/05/28 08:56:04;;;;;;;0.10;0.10;;;12.40;99.90;;;;;;5001594;28;20443;-81
2022/05/28 08:58:32;;;;;;;0.10;0.10;;;12.40;99.90;;;;;;5006984;28;20443;-81
2022/05/28 09:01:13;;;;;;;0.20;0.20;;;12.60;99.90;;;;;;5003729;28;20546;-81
2022/05/28 09:03:45;;;;;;;0.10;0.10;;;13.00;99.90;;;;;;4988525;28;20949;-89
2022/05/28 09:06:17;;;;;;;0.10;0.10;;;13.00;99.90;;;;;;4989640;28;21318;-79
2022/05/28 09:08:50;;;;;;;0.20;0.20;;;13.10;99.90;;;;;;4988429;28;20447;-80
2022/05/28 09:11:23;;;;;;;0.10;0.10;;;12.80;99.90;;;;;;5004326;28;20482;-82
2022/05/28 09:13:52;;;;;;;0.10;0.10;;;12.70;99.90;;;;;;4988301;28;20451;-82
2022/05/28 09:16:34;;;;;;;0.10;0.10;;;12.70;99.90;;;;;;5003139;28;20470;-84
2022/05/28 09:19:06;;;;;;;0.10;0.10;;;12.90;99.90;;;;;;5006454;28;20458;-81
2022/05/28 09:21:32;;;;;;;0.10;0.10;;;12.90;99.90;;;;;;4988457;28;20432;-82
2022/05/28 09:24:03;;;;;;;0.10;0.10;;;12.70;99.90;;;;;;5007283;28;20813;-84
2022/05/28 09:26:49;;;;;;;0.20;0.20;;;12.60;99.90;;;;;;5006478;28;20223;-80
2022/05/28 09:29:44;;;;;;;0.10;0.10;;;12.50;99.90;;;;;;5001139;28;20434;-80
2022/05/28 09:32:38;;;;;;;0.10;0.10;;;12.10;99.90;;;;;;5003306;28;20475;-80
2022/05/28 09:35:22;;;;;;;0.10;0.10;;;12.50;99.90;;;;;;5008830;28;20469;-81
2022/05/28 09:38:14;;;;;;;0.20;0.20;;;12.60;99.90;;;;;;4994928;28;20955;-82
2022/05/28 09:40:48;;;;;;;0.10;0.10;;;12.70;99.90;;;;;;5001734;28;20459;-80
2022/05/28 09:43:41;;;;;;;0.10;0.10;;;12.80;99.90;;;;;;4997961;28;20490;-84
2022/05/28 09:46:19;;;;;;;0.10;0.10;;;13.50;99.90;;;;;;4995385;28;20875;-79
2022/05/28 09:48:47;;;;;;;0.10;0.10;;;13.30;99.90;;;;;;5008517;28;20446;-80
2022/05/28 09:51:27;;;;;;;0.10;0.10;;;13.10;99.90;;;;;;4992294;28;20486;-81
2022/05/28 09:54:17;;;;;;;0.10;0.10;;;12.90;99.90;;;;;;5011562;28;20446;-79
2022/05/28 09:56:55;;;;;;;0.10;0.10;;;12.70;99.90;;;;;;4989890;28;20447;-83
2022/05/28 09:59:43;;;;;;;0.10;0.10;;;12.30;99.90;;;;;;5009556;28;20815;-80
2022/05/28 10:02:21;;;;;;;0.10;0.10;;;12.80;99.90;;;;;;4993835;28;20482;-82
2022/05/28 10:04:55;;;;;;;0.10;0.10;;;13.30;99.90;;;;;;4991888;28;20527;-83
2022/05/28 10:07:52;;;;;;;0.20;0.20;;;13.30;99.90;;;;;;5006778;28;20434;-81
2022/05/28 10:10:26;;;;;;;0.10;0.10;;;12.90;99.90;;;;;;4997167;28;20497;-86
2022/05/28 10:12:52;;;;;;;0.20;0.20;;;12.80;99.90;;;;;;5002319;28;20947;-79
2022/05/28 10:15:23;;;;;;;0.10;0.10;;;12.70;99.90;;;;;;5001670;28;20473;-81
2022/05/28 10:18:02;;;;;;;0.10;0.10;;;12.80;99.90;;;;;;5007383;28;20450;-79
2022/05/28 10:20:29;;;;;;;0.10;0.10;;;12.50;99.90;;;;;;5002849;28;20473;-81
2022/05/28 10:22:57;;;;;;;0.10;0.10;;;12.70;99.90;;;;;;4989832;28;20482;-79
2022/05/28 10:25:38;;;;;;;0.10;0.10;;;13.10;99.90;;;;;;5000935;28;20451;-80
2022/05/28 10:28:06;;;;;;;0.10;0.10;;;13.70;99.90;;;;;;4991915;28;20505;-81
2022/05/28 10:30:32;;;;;;;0.10;0.10;;;14.00;99.90;;;;;;5001553;28;20498;-83
2022/05/28 10:32:58;;;;;;;0.10;0.10;;;14.00;99.90;;;;;;4992238;28;20442;-85
2022/05/28 10:35:30;;;;;;;0.10;0.10;;;14.10;99.90;;;;;;5000441;28;20362;-82
2022/05/28 10:38:06;;;;;;;0.10;0.10;;;14.30;99.90;;;;;;4993653;28;20447;-81
2022/05/28 10:40:31;;;;;;;0.10;0.10;;;14.90;99.90;;;;;;5000621;28;20447;-81
2022/05/28 10:43:11;;;;;;;0.10;0.10;;;15.00;99.90;;;;;;5007239;28;20963;-82
2022/05/28 10:45:44;;;;;;;0.10;0.10;;;14.80;99.90;;;;;;4988802;28;20200;-82
2022/05/28 10:48:22;;;;;;;0.10;0.10;;;14.30;99.90;;;;;;4998237;28;20450;-82
2022/05/28 10:51:25;;;;;;;0.10;0.10;;;13.70;99.90;;;;;;5010083;28;20514;-85
2022/05/28 10:54:11;;;;;;;0.10;0.10;;;13.50;99.90;;;;;;5002851;28;20523;-80
2022/05/28 10:56:47;;;;;;;0.10;0.10;;;13.80;99.90;;;;;;5008979;28;20443;-81
2022/05/28 10:59:45;;;;;;;0.10;0.10;;;13.70;99.90;;;;;;4991533;28;20458;-85
2022/05/28 11:02:31;;;;;;;0.10;0.10;;;13.70;99.90;;;;;;4951225;28;20487;-85
2022/05/28 11:05:26;;;;;;;0.10;0.10;;;13.40;99.90;;;;;;5006885;28;20951;-82
2022/05/28 11:07:56;;;;;;;0.10;0.10;;;13.50;99.90;;;;;;4989940;28;20427;-88
2022/05/28 11:10:36;;;;;;;0.10;0.10;;;13.90;99.90;;;;;;5011157;28;20497;-91
2022/05/28 11:13:22;;;;;;;0.10;0.10;;;14.20;99.90;;;;;;5009980;28;20872;-80
2022/05/28 11:16:17;;;;;;;0.10;0.10;;;14.30;99.90;;;;;;4996030;28;20478;-89
2022/05/28 11:18:55;;;;;;;0.10;0.10;;;14.70;99.90;;;;;;4991108;28;20451;-85
2022/05/28 11:22:05;;;;;;;0.10;0.10;;;14.40;99.90;;;;;;5009908;28;20443;-83
2022/05/28 11:24:54;;;;;;;0.10;0.10;;;14.70;99.90;;;;;;5008902;28;20604;-85
2022/05/28 11:27:42;;;;;;;0.10;0.10;;;14.40;99.90;;;;;;5009390;28;20439;-87
2022/05/28 11:30:23;;;;;;;0.10;0.10;;;13.70;99.90;;;;;;5004546;28;20537;-84
2022/05/28 11:33:50;;;;;;;0.10;0.10;;;13.50;99.90;;;;;;5008947;28;20776;-85
2022/05/28 11:36:36;;;;;;;0.10;0.10;;;13.10;99.90;;;;;;4931337;29;20458;-87
2022/05/28 11:39:29;;;;;;;0.10;0.10;;;12.80;99.90;;;;;;4950172;29;20446;-86
2022/05/28 11:42:04;;;;;;;0.10;0.10;;;12.90;99.90;;;;;;4996721;28;22297;-83
2022/05/28 11:44:44;;;;;;;0.10;0.10;;;12.80;99.90;;;;;;5003093;28;20442;-83
2022/05/28 11:47:29;;;;;;;0.20;0.20;;;12.60;99.90;;;;;;5008457;28;20542;-88
2022/05/28 11:53:09;;;;;;;0.10;0.10;;;12.30;99.90;;;;;;5010180;28;20425;-81
2022/05/28 11:55:37;;;;;;;0.20;0.20;;;12.60;99.90;;;;;;4984644;28;20499;-81
2022/05/28 11:58:44;;;;;;;0.10;0.10;;;12.60;99.90;;;;;;4980005;28;20547;-81
2022/05/28 12:01:15;;;;;;;0.10;0.10;;;12.80;99.90;;;;;;4986362;28;20441;-91
2022/05/28 12:03:43;;;;;;;0.10;0.10;;;13.20;99.90;;;;;;5000570;28;20939;-84
2022/05/28 12:06:18;;;;;;;0.10;0.10;;;13.90;99.90;;;;;;4991539;28;20461;-82
2022/05/28 12:08:49;;;;;;;0.10;0.10;;;13.90;99.90;;;;;;5008232;28;20458;-82
2022/05/28 12:11:36;;;;;;;0.10;0.10;;;13.80;99.90;;;;;;5009005;28;20593;-84
2022/05/28 12:14:06;;;;;;;0.10;0.10;;;13.60;99.90;;;;;;5007898;28;20451;-86
2022/05/28 12:16:40;;;;;;;0.10;0.10;;;13.40;99.90;;;;;;4984574;28;20464;-89
2022/05/28 12:19:15;;;;;;;0.10;0.10;;;13.20;99.90;;;;;;5011200;28;20439;-83
2022/05/28 12:21:43;;;;;;;0.10;0.10;;;12.60;99.90;;;;;;5005087;28;20439;-86
2022/05/28 12:24:19;;;;;;;0.10;0.10;;;12.60;99.90;;;;;;5003369;28;20476;-82
2022/05/28 12:29:44;;;;;;;0.10;0.10;;;13.00;99.90;;;;;;5007760;28;20450;-88
2022/05/28 12:32:10;;;;;;;0.20;0.20;;;13.20;99.90;;;;;;5009709;28;20447;-83
2022/05/28 12:34:39;;;;;;;0.20;0.20;;;13.50;99.90;;;;;;4990266;28;20478;-83
2022/05/28 12:37:15;;;;;;;0.10;0.10;;;13.30;99.90;;;;;;4999184;28;20565;-82
2022/05/28 12:39:52;;;;;;;0.10;0.10;;;13.40;99.90;;;;;;4999946;28;20479;-82
2022/05/28 12:42:21;;;;;;;0.10;0.10;;;13.40;99.90;;;;;;5005392;28;20454;-82
2022/05/28 12:44:51;;;;;;;0.10;0.10;;;13.20;99.90;;;;;;5003449;28;20473;-87
2022/05/28 12:47:29;;;;;;;0.20;0.20;;;13.10;99.90;;;;;;5003077;28;20447;-87
2022/05/28 12:50:06;;;;;;;0.20;0.20;;;12.90;99.90;;;;;;4988398;28;20533;-82
2022/05/28 12:52:52;;;;;;;0.20;0.20;;;12.50;99.90;;;;;;5006036;28;21030;-80
2022/05/28 12:55:36;;;;;;;0.20;0.20;;;12.20;99.90;;;;;;4990246;28;20468;-80
2022/05/28 12:58:24;;;;;;;0.20;0.20;;;12.20;99.90;;;;;;5010333;28;20438;-82
2022/05/28 13:01:25;;;;;;;0.20;0.20;;;12.40;99.90;;;;;;5007080;28;20451;-82
2022/05/28 13:03:52;;;;;;;0.10;0.10;;;12.90;99.90;;;;;;4989635;28;20497;-82
2022/05/28 13:06:27;;;;;;;0.10;0.10;;;13.20;99.90;;;;;;4997473;28;20482;-82
2022/05/28 13:09:01;;;;;;;0.10;0.10;;;13.00;99.90;;;;;;4990586;28;20813;-82
2022/05/28 13:11:30;;;;;;;0.10;0.10;;;13.40;99.90;;;;;;4990827;28;20472;-84
2022/05/28 13:14:27;;;;;;;0.10;0.10;;;13.20;99.90;;;;;;5000073;28;20520;-82
2022/05/28 13:17:01;;;;;;;0.10;0.10;;;13.00;99.90;;;;;;5001674;28;20443;-84
2022/05/28 13:19:50;;;;;;;0.10;0.10;;;12.90;99.90;;;;;;5010541;28;20510;-81
2022/05/28 13:22:46;;;;;;;0.10;0.10;;;12.70;99.90;;;;;;5012478;28;20481;-81